Time,TemperatureF,DewpointF,PressureIn,WindDirection,WindDirectionDegrees,WindSpeedMPH,WindSpeedGustMPH,Humidity,HourlyPrecipIn,Conditions,Clouds,dailyrainin,SolarRadiationWatts/m^2,SoftwareType,DateUTC
2013-07-29 00:10:00,50.8,49.0,29.72,WSW,257,0.0,4.0,92,0.00,,,0.00,0,weatherlink.com 1.10,2013-07-29 07:10:00,
2013-07-29 00:25:00,50.9,49.0,29.72,West,263,0.0,4.0,92,0.00,,,0.00,0,weatherlink.com 1.10,2013-07-29 07:25:00,
2013-07-29 00:40:00,50.9,49.0,29.73,West,259,2.0,5.0,92,0.00,,,0.00,0,weatherlink.com 1.10,2013-07-29 07:40:00,
2013-07-29 00:56:00,51.0,49.0,29.73,SW,236,4.0,5.0,92,0.00,,,0.00,0,weatherlink.com 1.10,2013-07-29 07:56:00,
2013-07-29 01:11:00,50.9,49.0,29.73,West,277,2.0,4.0,93,0.00,,,0.00,0,weatherlink.com 1.10,2013-07-29 08:11:00,
2013-07-29 01:26:00,51.1,49.0,29.73,WNW,288,2.0,4.0,93,0.00,,,0.00,0,weatherlink.com 1.10,2013-07-29 08:26:00,
2013-07-29 01:41:00,51.0,49.0,29.73,WSW,246,1.0,6.0,92,0.00,,,0.00,0,weatherlink.com 1.10,2013-07-29 08:41:00,
2013-07-29 01:56:00,50.9,49.0,29.73,West,276,3.0,4.0,93,0.00,,,0.00,0,weatherlink.com 1.10,2013-07-29 08:56:00,
2013-07-29 02:26:00,50.7,49.0,29.73,SW,236,2.0,4.0,93,0.00,,,0.00,0,weatherlink.com 1.10,2013-07-29 09:26:00,
2013-07-29 02:41:00,50.7,49.0,29.73,West,268,1.0,5.0,94,0.00,,,0.00,0,weatherlink.com 1.10,2013-07-29 09:41:00,
2013-07-29 02:56:00,50.6,49.0,29.73,WSW,250,1.0,5.0,94,0.00,,,0.00,0,weatherlink.com 1.10,2013-07-29 09:56:00,
2013-07-29 04:26:00,50.5,49.0,29.74,West,261,1.0,2.0,95,0.00,,,0.00,0,weatherlink.com 1.10,2013-07-29 11:26:00,
2013-07-29 04:41:00,50.6,49.0,29.74,West,263,0.0,2.0,95,0.00,,,0.00,0,weatherlink.com 1.10,2013-07-29 11:41:00,
2013-07-29 05:26:00,50.5,49.0,29.75,West,275,0.0,2.0,96,0.00,,,0.00,0,weatherlink.com 1.10,2013-07-29 12:26:00,
2013-07-29 05:41:00,50.4,49.0,29.75,SW,232,0.0,3.0,96,0.00,,,0.00,0,weatherlink.com 1.10,2013-07-29 12:41:00,
2013-07-29 05:56:00,50.4,49.0,29.75,West,268,3.0,3.0,96,0.00,,,0.00,0,weatherlink.com 1.10,2013-07-29 12:56:00,
2013-07-29 06:11:00,50.5,49.0,29.76,SW,225,0.0,2.0,96,0.00,,,0.00,0,weatherlink.com 1.10,2013-07-29 13:11:00,
2013-07-29 06:26:00,50.5,49.0,29.77,West,267,1.0,3.0,96,0.00,,,0.00,0,weatherlink.com 1.10,2013-07-29 13:26:00,
2013-07-29 06:41:00,50.4,49.0,29.77,WNW,292,2.0,6.0,96,0.00,,,0.00,7,weatherlink.com 1.10,2013-07-29 13:41:00,
2013-07-29 06:56:00,50.4,49.0,29.78,West,277,0.0,3.0,96,0.00,,,0.00,12,weatherlink.com 1.10,2013-07-29 13:56:00,
2013-07-29 07:27:00,50.8,50.0,29.79,West,277,1.0,2.0,97,0.01,,,0.01,19,weatherlink.com 1.10,2013-07-29 14:27:00,
2013-07-29 07:42:00,50.9,50.0,29.79,WSW,253,2.0,4.0,96,0.01,,,0.01,28,weatherlink.com 1.10,2013-07-29 14:42:00,
2013-07-29 07:57:00,51.0,50.0,29.80,West,263,1.0,4.0,96,0.00,,,0.01,39,weatherlink.com 1.10,2013-07-29 14:57:00,
2013-07-29 08:12:00,51.2,50.0,29.80,SW,227,1.0,5.0,96,0.00,,,0.01,42,weatherlink.com 1.10,2013-07-29 15:12:00,
2013-07-29 08:27:00,51.2,50.0,29.81,WNW,292,4.0,5.0,96,0.00,,,0.01,44,weatherlink.com 1.10,2013-07-29 15:27:00,
2013-07-29 08:42:00,51.4,50.0,29.81,WNW,291,3.0,4.0,96,0.00,,,0.01,49,weatherlink.com 1.10,2013-07-29 15:42:00,
2013-07-29 08:57:00,51.7,51.0,29.82,WSW,244,3.0,4.0,96,0.00,,,0.01,69,weatherlink.com 1.10,2013-07-29 15:57:00,
2013-07-29 09:12:00,52.0,51.0,29.83,WNW,295,1.0,4.0,96,0.00,,,0.01,88,weatherlink.com 1.10,2013-07-29 16:12:00,
2013-07-29 09:27:00,52.5,51.0,29.83,WNW,289,1.0,3.0,96,0.00,,,0.01,91,weatherlink.com 1.10,2013-07-29 16:27:00,
2013-07-29 09:42:00,52.9,52.0,29.83,NW,319,0.0,2.0,95,0.00,,,0.01,98,weatherlink.com 1.10,2013-07-29 16:42:00,
2013-07-29 09:57:00,53.5,52.0,29.83,WNW,288,1.0,4.0,94,0.00,,,0.01,116,weatherlink.com 1.10,2013-07-29 16:57:00,
2013-07-29 10:12:00,54.0,52.0,29.83,WSW,256,1.0,4.0,93,0.00,,,0.01,151,weatherlink.com 1.10,2013-07-29 17:12:00,
2013-07-29 10:27:00,54.6,52.0,29.84,West,263,1.0,3.0,92,0.00,,,0.01,153,weatherlink.com 1.10,2013-07-29 17:27:00,
2013-07-29 10:57:00,55.7,53.0,29.85,West,261,2.0,6.0,90,0.00,,,0.01,169,weatherlink.com 1.10,2013-07-29 17:57:00,
2013-07-29 11:12:00,56.1,53.0,29.86,West,261,4.0,6.0,89,0.00,,,0.01,171,weatherlink.com 1.10,2013-07-29 18:12:00,
2013-07-29 11:27:00,56.5,54.0,29.87,SW,217,0.0,6.0,90,0.00,,,0.01,158,weatherlink.com 1.10,2013-07-29 18:27:00,
2013-07-29 11:42:00,57.2,53.0,29.86,WSW,255,1.0,6.0,87,0.00,,,0.01,179,weatherlink.com 1.10,2013-07-29 18:42:00,
2013-07-29 11:57:00,58.1,54.0,29.86,West,265,3.0,6.0,86,0.00,,,0.01,206,weatherlink.com 1.10,2013-07-29 18:57:00,
2013-07-29 12:28:00,59.7,54.0,29.86,SW,222,4.0,6.0,81,0.00,,,0.01,297,weatherlink.com 1.10,2013-07-29 19:28:00,
2013-07-29 12:43:00,60.9,54.0,29.86,West,263,2.0,5.0,79,0.00,,,0.01,383,weatherlink.com 1.10,2013-07-29 19:43:00,
2013-07-29 12:58:00,62.4,54.0,29.86,NNW,335,3.0,8.0,75,0.00,,,0.01,438,weatherlink.com 1.10,2013-07-29 19:58:00,
2013-07-29 13:28:00,65.9,55.0,29.86,WSW,242,2.0,12.0,68,0.00,,,0.01,826,weatherlink.com 1.10,2013-07-29 20:28:00,
2013-07-29 13:58:00,67.2,55.0,29.85,West,280,3.0,7.0,66,0.00,,,0.01,875,weatherlink.com 1.10,2013-07-29 20:58:00,
2013-07-29 14:13:00,69.1,56.0,29.85,West,261,4.0,7.0,63,0.00,,,0.01,858,weatherlink.com 1.10,2013-07-29 21:13:00,
2013-07-29 14:28:00,70.9,56.0,29.84,West,269,2.0,9.0,59,0.00,,,0.01,844,weatherlink.com 1.10,2013-07-29 21:28:00,
2013-07-29 14:43:00,72.3,56.0,29.84,NW,315,4.0,9.0,56,0.00,,,0.01,828,weatherlink.com 1.10,2013-07-29 21:43:00,
2013-07-29 15:58:00,75.0,56.0,29.84,WNW,284,9.0,11.0,52,0.00,,,0.01,696,weatherlink.com 1.10,2013-07-29 22:58:00,
2013-07-29 16:13:00,75.0,56.0,29.84,NNW,344,5.0,12.0,52,0.00,,,0.01,661,weatherlink.com 1.10,2013-07-29 23:13:00,
2013-07-29 16:28:00,74.6,56.0,29.84,West,279,9.0,12.0,52,0.00,,,0.01,624,weatherlink.com 1.10,2013-07-29 23:28:00,
2013-07-29 16:43:00,73.0,55.0,29.84,West,265,7.0,10.0,54,0.00,,,0.01,580,weatherlink.com 1.10,2013-07-29 23:43:00,
2013-07-29 16:58:00,71.7,55.0,29.85,South,176,2.0,9.0,56,0.00,,,0.01,538,weatherlink.com 1.10,2013-07-29 23:58:00,
2013-07-29 17:13:00,71.1,55.0,29.85,WSW,240,5.0,11.0,57,0.00,,,0.01,496,weatherlink.com 1.10,2013-07-30 00:13:00,
2013-07-29 17:28:00,70.4,54.0,29.84,WNW,287,3.0,13.0,57,0.00,,,0.01,448,weatherlink.com 1.10,2013-07-30 00:28:00,
2013-07-29 17:43:00,68.5,54.0,29.85,South,190,4.0,10.0,60,0.00,,,0.01,408,weatherlink.com 1.10,2013-07-30 00:43:00,
2013-07-29 17:58:00,66.9,54.0,29.85,SSE,163,5.0,9.0,63,0.00,,,0.01,352,weatherlink.com 1.10,2013-07-30 00:58:00,
2013-07-29 18:13:00,65.6,53.0,29.84,NW,310,4.0,10.0,65,0.00,,,0.01,301,weatherlink.com 1.10,2013-07-30 01:13:00,
2013-07-29 18:28:00,64.8,54.0,29.84,WNW,284,1.0,9.0,67,0.00,,,0.01,251,weatherlink.com 1.10,2013-07-30 01:28:00,
2013-07-29 18:44:00,64.5,54.0,29.84,West,275,7.0,8.0,68,0.00,,,0.01,204,weatherlink.com 1.10,2013-07-30 01:44:00,
2013-07-29 18:58:00,64.0,54.0,29.84,West,278,2.0,8.0,69,0.00,,,0.01,165,weatherlink.com 1.10,2013-07-30 01:58:00,
2013-07-29 19:28:00,62.2,53.0,29.85,SW,236,1.0,7.0,73,0.00,,,0.01,81,weatherlink.com 1.10,2013-07-30 02:28:00,
2013-07-29 19:43:00,61.4,53.0,29.84,WSW,242,2.0,5.0,74,0.00,,,0.01,39,weatherlink.com 1.10,2013-07-30 02:43:00,
2013-07-29 19:58:00,60.8,53.0,29.85,WSW,248,0.0,2.0,75,0.00,,,0.01,21,weatherlink.com 1.10,2013-07-30 02:58:00,
2013-07-29 20:13:00,59.7,52.0,29.85,WSW,244,2.0,4.0,77,0.00,,,0.01,7,weatherlink.com 1.10,2013-07-30 03:13:00,
2013-07-29 20:28:00,58.5,52.0,29.85,WSW,252,3.0,4.0,79,0.00,,,0.01,0,weatherlink.com 1.10,2013-07-30 03:28:00,
2013-07-29 20:44:00,57.3,52.0,29.86,WSW,250,0.0,3.0,81,0.00,,,0.01,0,weatherlink.com 1.10,2013-07-30 03:44:00,
2013-07-29 21:14:00,55.3,51.0,29.87,WSW,245,1.0,3.0,85,0.00,,,0.01,0,weatherlink.com 1.10,2013-07-30 04:14:00,
2013-07-29 21:29:00,54.4,50.0,29.87,SW,221,0.0,2.0,86,0.00,,,0.01,0,weatherlink.com 1.10,2013-07-30 04:29:00,
2013-07-29 21:44:00,53.7,50.0,29.88,SW,221,0.0,1.0,87,0.00,,,0.01,0,weatherlink.com 1.10,2013-07-30 04:44:00,
2013-07-29 21:59:00,53.1,50.0,29.89,SW,231,0.0,2.0,89,0.00,,,0.01,0,weatherlink.com 1.10,2013-07-30 04:59:00,
2013-07-29 22:14:00,52.5,49.0,29.89,SW,223,0.0,1.0,89,0.00,,,0.01,0,weatherlink.com 1.10,2013-07-30 05:14:00,
2013-07-29 22:29:00,51.8,49.0,29.90,SW,229,1.0,2.0,89,0.00,,,0.01,0,weatherlink.com 1.10,2013-07-30 05:29:00,
2013-07-29 22:44:00,51.1,49.0,29.89,SW,229,0.0,1.0,91,0.00,,,0.01,0,weatherlink.com 1.10,2013-07-30 05:44:00,
2013-07-29 22:59:00,50.7,49.0,29.89,SSW,209,0.0,2.0,92,0.00,,,0.01,0,weatherlink.com 1.10,2013-07-30 05:59:00,
2013-07-29 23:14:00,50.3,48.0,29.89,WSW,237,0.0,2.0,92,0.00,,,0.01,0,weatherlink.com 1.10,2013-07-30 06:14:00,
2013-07-29 23:29:00,50.0,48.0,29.89,West,267,0.0,2.0,93,0.00,,,0.01,0,weatherlink.com 1.10,2013-07-30 06:29:00,
2013-07-29 23:44:00,50.3,49.0,29.90,SW,236,2.0,3.0,95,0.00,,,0.01,0,weatherlink.com 1.10,2013-07-30 06:44:00,
2013-07-29 23:59:00,51.0,50.0,29.91,WSW,254,4.0,6.0,95,0.00,,,0.01,0,weatherlink.com 1.10,2013-07-30 06:59:00,